sensor_id;sensor_type;location;lat;lon;timestamp;temperature;humidity
8979;DHT22;4524;51.364;5.448;2024-01-30T00:01:08;8.60;99.90
8979;DHT22;4524;51.364;5.448;2024-01-30T00:03:37;8.50;99.90
8979;DHT22;4524;51.364;5.448;2024-01-30T00:06:05;8.50;99.90
8979;DHT22;4524;51.364;5.448;2024-01-30T00:08:33;8.50;99.90
8979;DHT22;4524;51.364;5.448;2024-01-30T00:11:03;8.50;99.90
8979;DHT22;4524;51.364;5.448;2024-01-30T00:13:31;8.50;99.90
8979;DHT22;4524;51.364;5.448;2024-01-30T00:15:59;8.50;99.90
8979;DHT22;4524;51.364;5.448;2024-01-30T00:18:27;8.50;99.90
8979;DHT22;4524;51.364;5.448;2024-01-30T00:20:55;8.50;99.90
8979;DHT22;4524;51.364;5.448;2024-01-30T00:23:23;8.40;99.90
8979;DHT22;4524;51.364;5.448;2024-01-30T00:25:52;8.40;99.90
8979;DHT22;4524;51.364;5.448;2024-01-30T00:28:21;8.40;99.90
8979;DHT22;4524;51.364;5.448;2024-01-30T00:30:49;8.40;99.90
8979;DHT22;4524;51.364;5.448;2024-01-30T00:33:17;8.40;99.90
8979;DHT22;4524;51.364;5.448;2024-01-30T00:35:45;8.40;99.90
8979;DHT22;4524;51.364;5.448;2024-01-30T00:38:13;8.40;99.90
8979;DHT22;4524;51.364;5.448;2024-01-30T00:40:41;8.30;99.90
8979;DHT22;4524;51.364;5.448;2024-01-30T00:43:08;8.40;99.90
8979;DHT22;4524;51.364;5.448;2024-01-30T00:45:38;8.30;99.90
8979;DHT22;4524;51.364;5.448;2024-01-30T00:48:06;8.40;99.90
8979;DHT22;4524;51.364;5.448;2024-01-30T00:50:34;8.30;99.90
8979;DHT22;4524;51.364;5.448;2024-01-30T00:53:03;8.30;99.90
8979;DHT22;4524;51.364;5.448;2024-01-30T00:55:31;8.30;99.90
8979;DHT22;4524;51.364;5.448;2024-01-30T00:57:59;8.30;99.90
8979;DHT22;4524;51.364;5.448;2024-01-30T01:00:27;8.30;99.90
8979;DHT22;4524;51.364;5.448;2024-01-30T01:02:57;8.30;99.90
8979;DHT22;4524;51.364;5.448;2024-01-30T01:05:26;8.30;99.90
8979;DHT22;4524;51.364;5.448;2024-01-30T01:07:54;8.30;99.90
8979;DHT22;4524;51.364;5.448;2024-01-30T01:10:22;8.30;99.90
8979;DHT22;4524;51.364;5.448;2024-01-30T01:12:50;8.30;99.90
8979;DHT22;4524;51.364;5.448;2024-01-30T01:15:18;8.30;99.90
8979;DHT22;4524;51.364;5.448;2024-01-30T01:17:46;8.40;99.90
8979;DHT22;4524;51.364;5.448;2024-01-30T01:20:16;8.40;99.90
8979;DHT22;4524;51.364;5.448;2024-01-30T01:22:44;8.40;99.90
8979;DHT22;4524;51.364;5.448;2024-01-30T01:25:12;8.40;99.90
8979;DHT22;4524;51.364;5.448;2024-01-30T01:27:40;8.50;99.90
8979;DHT22;4524;51.364;5.448;2024-01-30T01:30:10;8.50;99.90
8979;DHT22;4524;51.364;5.448;2024-01-30T01:32:41;8.60;99.90
8979;DHT22;4524;51.364;5.448;2024-01-30T01:35:17;8.60;99.90
8979;DHT22;4524;51.364;5.448;2024-01-30T01:37:45;8.60;99.90
8979;DHT22;4524;51.364;5.448;2024-01-30T01:40:13;8.70;99.90
8979;DHT22;4524;51.364;5.448;2024-01-30T01:42:41;8.60;99.90
8979;DHT22;4524;51.364;5.448;2024-01-30T01:45:09;8.70;99.90
8979;DHT22;4524;51.364;5.448;2024-01-30T01:47:37;8.70;99.90
8979;DHT22;4524;51.364;5.448;2024-01-30T01:50:06;8.70;99.90
8979;DHT22;4524;51.364;5.448;2024-01-30T01:52:36;8.70;99.90
8979;DHT22;4524;51.364;5.448;2024-01-30T01:55:05;8.70;99.90
8979;DHT22;4524;51.364;5.448;2024-01-30T01:57:37;8.70;99.90
8979;DHT22;4524;51.364;5.448;2024-01-30T02:00:07;8.70;99.90
8979;DHT22;4524;51.364;5.448;2024-01-30T02:02:36;8.70;99.90
8979;DHT22;4524;51.364;5.448;2024-01-30T02:05:05;8.70;99.90
8979;DHT22;4524;51.364;5.448;2024-01-30T02:07:35;8.60;99.90
8979;DHT22;4524;51.364;5.448;2024-01-30T02:10:03;8.60;99.90
8979;DHT22;4524;51.364;5.448;2024-01-30T02:12:31;8.60;99.90
8979;DHT22;4524;51.364;5.448;2024-01-30T02:14:59;8.60;99.90
8979;DHT22;4524;51.364;5.448;2024-01-30T02:17:28;8.60;99.90
8979;DHT22;4524;51.364;5.448;2024-01-30T02:19:56;8.60;99.90
8979;DHT22;4524;51.364;5.448;2024-01-30T02:22:26;8.60;99.90
8979;DHT22;4524;51.364;5.448;2024-01-30T02:24:54;8.60;99.90
8979;DHT22;4524;51.364;5.448;2024-01-30T02:27:22;8.60;99.90
8979;DHT22;4524;51.364;5.448;2024-01-30T02:29:50;8.60;99.90
8979;DHT22;4524;51.364;5.448;2024-01-30T02:32:18;8.60;99.90
8979;DHT22;4524;51.364;5.448;2024-01-30T02:34:46;8.60;99.90
8979;DHT22;4524;51.364;5.448;2024-01-30T02:37:14;8.60;99.90
8979;DHT22;4524;51.364;5.448;2024-01-30T02:39:44;8.60;99.90
8979;DHT22;4524;51.364;5.448;2024-01-30T02:42:12;8.70;99.90
8979;DHT22;4524;51.364;5.448;2024-01-30T02:44:40;8.70;99.90
8979;DHT22;4524;51.364;5.448;2024-01-30T02:47:08;8.70;99.90
8979;DHT22;4524;51.364;5.448;2024-01-30T02:49:36;8.70;99.90
8979;DHT22;4524;51.364;5.448;2024-01-30T02:52:04;8.70;99.90
8979;DHT22;4524;51.364;5.448;2024-01-30T02:54:32;8.70;99.90
8979;DHT22;4524;51.364;5.448;2024-01-30T02:57:02;8.70;99.90
8979;DHT22;4524;51.364;5.448;2024-01-30T02:59:30;8.70;99.90
8979;DHT22;4524;51.364;5.448;2024-01-30T03:02:00;8.80;99.90
8979;DHT22;4524;51.364;5.448;2024-01-30T03:04:28;8.80;99.90
8979;DHT22;4524;51.364;5.448;2024-01-30T03:06:57;8.80;99.90
8979;DHT22;4524;51.364;5.448;2024-01-30T03:09:25;8.80;99.90
8979;DHT22;4524;51.364;5.448;2024-01-30T03:11:53;8.80;99.90
8979;DHT22;4524;51.364;5.448;2024-01-30T03:14:22;8.70;99.90
8979;DHT22;4524;51.364;5.448;2024-01-30T03:16:50;8.70;99.90
8979;DHT22;4524;51.364;5.448;2024-01-30T03:19:18;8.70;99.90
8979;DHT22;4524;51.364;5.448;2024-01-30T03:21:46;8.70;99.90
8979;DHT22;4524;51.364;5.448;2024-01-30T03:24:15;8.60;99.90
8979;DHT22;4524;51.364;5.448;2024-01-30T03:26:43;8.70;99.90
8979;DHT22;4524;51.364;5.448;2024-01-30T03:29:11;8.60;99.90
8979;DHT22;4524;51.364;5.448;2024-01-30T03:31:40;8.60;99.90
8979;DHT22;4524;51.364;5.448;2024-01-30T03:34:08;8.60;99.90
8979;DHT22;4524;51.364;5.448;2024-01-30T03:36:37;8.60;99.90
8979;DHT22;4524;51.364;5.448;2024-01-30T03:39:05;8.60;99.90
8979;DHT22;4524;51.364;5.448;2024-01-30T03:41:33;8.50;99.90
8979;DHT22;4524;51.364;5.448;2024-01-30T03:44:01;8.50;99.90
8979;DHT22;4524;51.364;5.448;2024-01-30T03:46:29;8.60;99.90
8979;DHT22;4524;51.364;5.448;2024-01-30T03:48:58;8.60;99.90
8979;DHT22;4524;51.364;5.448;2024-01-30T03:51:26;8.60;99.90
8979;DHT22;4524;51.364;5.448;2024-01-30T03:53:54;8.60;99.90
8979;DHT22;4524;51.364;5.448;2024-01-30T03:56:22;8.60;99.90
8979;DHT22;4524;51.364;5.448;2024-01-30T03:58:52;8.60;99.90
8979;DHT22;4524;51.364;5.448;2024-01-30T04:01:20;8.70;99.90
8979;DHT22;4524;51.364;5.448;2024-01-30T04:03:48;8.70;99.90
8979;DHT22;4524;51.364;5.448;2024-01-30T04:06:17;8.70;99.90
8979;DHT22;4524;51.364;5.448;2024-01-30T04:08:45;8.70;99.90
8979;DHT22;4524;51.364;5.448;2024-01-30T04:11:13;8.70;99.90
8979;DHT22;4524;51.364;5.448;2024-01-30T04:13:41;8.80;99.90
8979;DHT22;4524;51.364;5.448;2024-01-30T04:16:19;8.80;99.90
8979;DHT22;4524;51.364;5.448;2024-01-30T04:18:47;8.80;99.90
8979;DHT22;4524;51.364;5.448;2024-01-30T04:21:16;8.80;99.90
8979;DHT22;4524;51.364;5.448;2024-01-30T04:23:45;8.90;99.90
8979;DHT22;4524;51.364;5.448;2024-01-30T04:26:13;8.90;99.90
8979;DHT22;4524;51.364;5.448;2024-01-30T04:28:41;8.90;99.90
8979;DHT22;4524;51.364;5.448;2024-01-30T04:31:09;9.00;99.90
8979;DHT22;4524;51.364;5.448;2024-01-30T04:33:37;9.00;99.90
8979;DHT22;4524;51.364;5.448;2024-01-30T04:36:08;9.00;99.90
8979;DHT22;4524;51.364;5.448;2024-01-30T04:38:38;9.10;99.90
8979;DHT22;4524;51.364;5.448;2024-01-30T04:41:07;9.10;99.90
8979;DHT22;4524;51.364;5.448;2024-01-30T04:43:35;9.20;99.90
8979;DHT22;4524;51.364;5.448;2024-01-30T04:46:04;9.20;99.90
8979;DHT22;4524;51.364;5.448;2024-01-30T04:48:32;9.20;99.90
8979;DHT22;4524;51.364;5.448;2024-01-30T04:51:00;9.30;99.90
8979;DHT22;4524;51.364;5.448;2024-01-30T04:53:30;9.30;99.90
8979;DHT22;4524;51.364;5.448;2024-01-30T04:55:58;9.30;99.90
8979;DHT22;4524;51.364;5.448;2024-01-30T04:58:28;9.30;99.90
8979;DHT22;4524;51.364;5.448;2024-01-30T05:00:56;9.40;99.90
8979;DHT22;4524;51.364;5.448;2024-01-30T05:03:24;9.40;99.90
8979;DHT22;4524;51.364;5.448;2024-01-30T05:05:52;9.50;99.90
8979;DHT22;4524;51.364;5.448;2024-01-30T05:08:20;9.50;99.90
8979;DHT22;4524;51.364;5.448;2024-01-30T05:10:48;9.50;99.90
8979;DHT22;4524;51.364;5.448;2024-01-30T05:13:16;9.50;99.90
8979;DHT22;4524;51.364;5.448;2024-01-30T05:15:46;9.50;99.90
8979;DHT22;4524;51.364;5.448;2024-01-30T05:18:14;9.50;99.90
8979;DHT22;4524;51.364;5.448;2024-01-30T05:20:42;9.60;99.90
8979;DHT22;4524;51.364;5.448;2024-01-30T05:23:10;9.50;99.90
8979;DHT22;4524;51.364;5.448;2024-01-30T05:25:38;9.60;99.90
8979;DHT22;4524;51.364;5.448;2024-01-30T05:28:06;9.60;99.90
8979;DHT22;4524;51.364;5.448;2024-01-30T05:30:34;9.60;99.90
8979;DHT22;4524;51.364;5.448;2024-01-30T05:33:04;9.60;99.90
8979;DHT22;4524;51.364;5.448;2024-01-30T05:35:32;9.60;99.90
8979;DHT22;4524;51.364;5.448;2024-01-30T05:38:00;9.70;99.90
8979;DHT22;4524;51.364;5.448;2024-01-30T05:40:28;9.60;99.90
8979;DHT22;4524;51.364;5.448;2024-01-30T05:42:56;9.70;99.90
8979;DHT22;4524;51.364;5.448;2024-01-30T05:45:25;9.70;99.90
8979;DHT22;4524;51.364;5.448;2024-01-30T05:47:53;9.70;99.90
8979;DHT22;4524;51.364;5.448;2024-01-30T05:50:23;9.70;99.90
8979;DHT22;4524;51.364;5.448;2024-01-30T05:52:52;9.70;99.90
8979;DHT22;4524;51.364;5.448;2024-01-30T05:55:20;9.80;99.90
8979;DHT22;4524;51.364;5.448;2024-01-30T05:57:48;9.80;99.90
8979;DHT22;4524;51.364;5.448;2024-01-30T06:00:17;9.80;99.90
8979;DHT22;4524;51.364;5.448;2024-01-30T06:02:45;9.80;99.90
8979;DHT22;4524;51.364;5.448;2024-01-30T06:05:13;9.90;99.90
8979;DHT22;4524;51.364;5.448;2024-01-30T06:07:42;9.90;99.90
8979;DHT22;4524;51.364;5.448;2024-01-30T06:10:10;9.90;99.90
8979;DHT22;4524;51.364;5.448;2024-01-30T06:12:39;9.90;99.90
8979;DHT22;4524;51.364;5.448;2024-01-30T06:15:08;9.90;99.90
8979;DHT22;4524;51.364;5.448;2024-01-30T06:17:36;9.90;99.90
8979;DHT22;4524;51.364;5.448;2024-01-30T06:20:07;10.00;99.90
8979;DHT22;4524;51.364;5.448;2024-01-30T06:22:35;10.00;99.90
8979;DHT22;4524;51.364;5.448;2024-01-30T06:25:04;10.00;99.90
8979;DHT22;4524;51.364;5.448;2024-01-30T06:27:33;10.00;99.90
8979;DHT22;4524;51.364;5.448;2024-01-30T06:30:01;10.10;99.90
8979;DHT22;4524;51.364;5.448;2024-01-30T06:32:29;10.00;99.90
8979;DHT22;4524;51.364;5.448;2024-01-30T06:35:01;10.10;99.90
8979;DHT22;4524;51.364;5.448;2024-01-30T06:37:29;10.10;99.90
8979;DHT22;4524;51.364;5.448;2024-01-30T06:39:57;10.00;99.90
8979;DHT22;4524;51.364;5.448;2024-01-30T06:42:27;10.10;99.90
8979;DHT22;4524;51.364;5.448;2024-01-30T06:44:55;10.10;99.90
8979;DHT22;4524;51.364;5.448;2024-01-30T06:47:23;10.10;99.90
8979;DHT22;4524;51.364;5.448;2024-01-30T06:49:51;10.10;99.90
8979;DHT22;4524;51.364;5.448;2024-01-30T06:52:19;10.10;99.90
8979;DHT22;4524;51.364;5.448;2024-01-30T06:54:47;10.10;99.90
8979;DHT22;4524;51.364;5.448;2024-01-30T06:57:15;10.20;99.90
8979;DHT22;4524;51.364;5.448;2024-01-30T06:59:45;10.20;99.90
8979;DHT22;4524;51.364;5.448;2024-01-30T07:02:13;10.20;99.90
8979;DHT22;4524;51.364;5.448;2024-01-30T07:04:41;10.20;99.90
8979;DHT22;4524;51.364;5.448;2024-01-30T07:07:13;10.20;99.90
8979;DHT22;4524;51.364;5.448;2024-01-30T07:09:42;10.20;99.90
8979;DHT22;4524;51.364;5.448;2024-01-30T07:12:10;10.20;99.90
8979;DHT22;4524;51.364;5.448;2024-01-30T07:14:38;10.20;99.90
8979;DHT22;4524;51.364;5.448;2024-01-30T07:17:07;10.20;99.90
8979;DHT22;4524;51.364;5.448;2024-01-30T07:19:35;10.20;99.90
8979;DHT22;4524;51.364;5.448;2024-01-30T07:22:04;10.20;99.90
8979;DHT22;4524;51.364;5.448;2024-01-30T07:24:32;10.20;99.90
8979;DHT22;4524;51.364;5.448;2024-01-30T07:27:00;10.20;99.90
8979;DHT22;4524;51.364;5.448;2024-01-30T07:29:28;10.20;99.90
8979;DHT22;4524;51.364;5.448;2024-01-30T07:31:56;10.20;99.90
8979;DHT22;4524;51.364;5.448;2024-01-30T07:34:25;10.20;99.90
8979;DHT22;4524;51.364;5.448;2024-01-30T07:36:54;10.20;99.90
8979;DHT22;4524;51.364;5.448;2024-01-30T07:39:22;10.20;99.90
8979;DHT22;4524;51.364;5.448;2024-01-30T07:41:50;10.20;99.90
8979;DHT22;4524;51.364;5.448;2024-01-30T07:44:18;10.20;99.90
8979;DHT22;4524;51.364;5.448;2024-01-30T07:46:46;10.10;99.90
8979;DHT22;4524;51.364;5.448;2024-01-30T07:49:14;10.10;99.90
8979;DHT22;4524;51.364;5.448;2024-01-30T07:51:44;10.10;99.90
8979;DHT22;4524;51.364;5.448;2024-01-30T07:54:13;10.20;99.90
8979;DHT22;4524;51.364;5.448;2024-01-30T07:56:41;10.10;99.90
8979;DHT22;4524;51.364;5.448;2024-01-30T07:59:10;10.20;99.90
8979;DHT22;4524;51.364;5.448;2024-01-30T08:01:38;10.20;99.90
8979;DHT22;4524;51.364;5.448;2024-01-30T08:04:06;10.20;99.90
8979;DHT22;4524;51.364;5.448;2024-01-30T08:06:34;10.30;99.90
8979;DHT22;4524;51.364;5.448;2024-01-30T08:09:04;10.30;99.90
8979;DHT22;4524;51.364;5.448;2024-01-30T08:11:32;10.30;99.90
8979;DHT22;4524;51.364;5.448;2024-01-30T08:14:02;10.30;99.90
8979;DHT22;4524;51.364;5.448;2024-01-30T08:16:31;10.30;99.90
8979;DHT22;4524;51.364;5.448;2024-01-30T08:18:59;10.30;99.90
8979;DHT22;4524;51.364;5.448;2024-01-30T08:21:28;10.30;99.90
8979;DHT22;4524;51.364;5.448;2024-01-30T08:23:56;10.30;99.90
8979;DHT22;4524;51.364;5.448;2024-01-30T08:26:25;10.30;99.90
8979;DHT22;4524;51.364;5.448;2024-01-30T08:28:53;10.40;99.90
8979;DHT22;4524;51.364;5.448;2024-01-30T08:31:21;10.40;99.90
8979;DHT22;4524;51.364;5.448;2024-01-30T08:33:50;10.50;99.90
8979;DHT22;4524;51.364;5.448;2024-01-30T08:36:18;10.40;99.90
8979;DHT22;4524;51.364;5.448;2024-01-30T08:38:47;10.50;99.90
8979;DHT22;4524;51.364;5.448;2024-01-30T08:41:15;10.50;99.90
8979;DHT22;4524;51.364;5.448;2024-01-30T08:43:44;10.60;99.90
8979;DHT22;4524;51.364;5.448;2024-01-30T08:46:13;10.60;99.90
8979;DHT22;4524;51.364;5.448;2024-01-30T08:48:45;10.70;99.90
8979;DHT22;4524;51.364;5.448;2024-01-30T08:51:14;10.70;99.90
8979;DHT22;4524;51.364;5.448;2024-01-30T08:53:42;10.70;99.90
8979;DHT22;4524;51.364;5.448;2024-01-30T08:56:10;10.80;99.90
8979;DHT22;4524;51.364;5.448;2024-01-30T08:58:38;10.80;99.90
8979;DHT22;4524;51.364;5.448;2024-01-30T09:01:08;10.90;99.90
8979;DHT22;4524;51.364;5.448;2024-01-30T09:03:36;10.90;99.90
8979;DHT22;4524;51.364;5.448;2024-01-30T09:06:08;10.90;99.90
8979;DHT22;4524;51.364;5.448;2024-01-30T09:08:38;11.00;99.90
8979;DHT22;4524;51.364;5.448;2024-01-30T09:11:08;11.00;99.90
8979;DHT22;4524;51.364;5.448;2024-01-30T09:13:35;11.00;99.90
8979;DHT22;4524;51.364;5.448;2024-01-30T09:16:04;11.10;99.90
8979;DHT22;4524;51.364;5.448;2024-01-30T09:18:34;11.10;99.90
8979;DHT22;4524;51.364;5.448;2024-01-30T09:21:02;11.20;99.90
8979;DHT22;4524;51.364;5.448;2024-01-30T09:23:30;11.20;99.90
8979;DHT22;4524;51.364;5.448;2024-01-30T09:25:58;11.30;99.90
8979;DHT22;4524;51.364;5.448;2024-01-30T09:28:26;11.30;99.90
8979;DHT22;4524;51.364;5.448;2024-01-30T09:30:54;11.30;99.90
8979;DHT22;4524;51.364;5.448;2024-01-30T09:33:22;11.40;99.90
8979;DHT22;4524;51.364;5.448;2024-01-30T09:35:52;11.40;99.90
8979;DHT22;4524;51.364;5.448;2024-01-30T09:38:20;11.40;99.90
8979;DHT22;4524;51.364;5.448;2024-01-30T09:40:53;11.40;99.90
8979;DHT22;4524;51.364;5.448;2024-01-30T09:43:23;11.50;99.90
8979;DHT22;4524;51.364;5.448;2024-01-30T09:45:53;11.50;99.90
8979;DHT22;4524;51.364;5.448;2024-01-30T09:48:24;11.50;99.90
8979;DHT22;4524;51.364;5.448;2024-01-30T09:50:54;11.50;99.90
8979;DHT22;4524;51.364;5.448;2024-01-30T09:53:24;11.50;99.90
8979;DHT22;4524;51.364;5.448;2024-01-30T09:55:52;11.60;99.90
8979;DHT22;4524;51.364;5.448;2024-01-30T09:58:20;11.60;99.90
8979;DHT22;4524;51.364;5.448;2024-01-30T10:00:49;11.70;99.90
8979;DHT22;4524;51.364;5.448;2024-01-30T10:03:17;11.80;99.90
8979;DHT22;4524;51.364;5.448;2024-01-30T10:05:51;11.90;99.90
8979;DHT22;4524;51.364;5.448;2024-01-30T10:08:20;12.00;99.90
8979;DHT22;4524;51.364;5.448;2024-01-30T10:10:49;12.10;99.90
8979;DHT22;4524;51.364;5.448;2024-01-30T10:13:18;12.10;99.90
8979;DHT22;4524;51.364;5.448;2024-01-30T10:15:47;12.10;99.90
8979;DHT22;4524;51.364;5.448;2024-01-30T10:18:16;12.10;99.90
8979;DHT22;4524;51.364;5.448;2024-01-30T10:20:43;12.20;99.90
8979;DHT22;4524;51.364;5.448;2024-01-30T10:23:11;12.20;99.90
8979;DHT22;4524;51.364;5.448;2024-01-30T10:25:41;12.20;99.90
8979;DHT22;4524;51.364;5.448;2024-01-30T10:28:09;12.20;99.90
8979;DHT22;4524;51.364;5.448;2024-01-30T10:30:37;12.20;99.90
8979;DHT22;4524;51.364;5.448;2024-01-30T10:33:05;12.10;99.90
8979;DHT22;4524;51.364;5.448;2024-01-30T10:35:33;12.10;99.90
8979;DHT22;4524;51.364;5.448;2024-01-30T10:38:01;12.10;99.90
8979;DHT22;4524;51.364;5.448;2024-01-30T10:40:31;12.20;99.90
8979;DHT22;4524;51.364;5.448;2024-01-30T10:43:02;12.30;99.90
8979;DHT22;4524;51.364;5.448;2024-01-30T10:45:31;12.40;99.90
8979;DHT22;4524;51.364;5.448;2024-01-30T10:48:00;12.40;99.90
8979;DHT22;4524;51.364;5.448;2024-01-30T10:50:30;12.30;99.90
8979;DHT22;4524;51.364;5.448;2024-01-30T10:53:04;12.30;99.90
8979;DHT22;4524;51.364;5.448;2024-01-30T10:55:33;12.20;99.90
8979;DHT22;4524;51.364;5.448;2024-01-30T10:58:04;12.20;99.90
8979;DHT22;4524;51.364;5.448;2024-01-30T11:00:32;12.20;99.90
8979;DHT22;4524;51.364;5.448;2024-01-30T11:03:01;12.20;99.90
8979;DHT22;4524;51.364;5.448;2024-01-30T11:05:30;12.40;99.90
8979;DHT22;4524;51.364;5.448;2024-01-30T11:08:10;12.40;99.90
8979;DHT22;4524;51.364;5.448;2024-01-30T11:10:45;12.60;99.90
8979;DHT22;4524;51.364;5.448;2024-01-30T11:13:15;12.70;99.90
8979;DHT22;4524;51.364;5.448;2024-01-30T11:15:43;12.70;99.90
8979;DHT22;4524;51.364;5.448;2024-01-30T11:18:11;12.60;99.90
8979;DHT22;4524;51.364;5.448;2024-01-30T11:20:47;12.60;99.90
8979;DHT22;4524;51.364;5.448;2024-01-30T11:23:16;12.60;99.90
8979;DHT22;4524;51.364;5.448;2024-01-30T11:25:44;12.50;99.90
8979;DHT22;4524;51.364;5.448;2024-01-30T11:28:17;12.60;99.90
8979;DHT22;4524;51.364;5.448;2024-01-30T11:30:45;12.60;99.90
8979;DHT22;4524;51.364;5.448;2024-01-30T11:33:14;12.50;99.90
8979;DHT22;4524;51.364;5.448;2024-01-30T11:35:44;12.60;99.90
8979;DHT22;4524;51.364;5.448;2024-01-30T11:38:14;12.60;99.90
8979;DHT22;4524;51.364;5.448;2024-01-30T11:40:44;12.60;99.90
8979;DHT22;4524;51.364;5.448;2024-01-30T11:43:12;12.70;99.90
8979;DHT22;4524;51.364;5.448;2024-01-30T11:45:41;12.80;99.90
8979;DHT22;4524;51.364;5.448;2024-01-30T11:48:12;12.80;99.90
8979;DHT22;4524;51.364;5.448;2024-01-30T11:50:40;12.80;99.90
8979;DHT22;4524;51.364;5.448;2024-01-30T11:53:09;12.70;99.90
8979;DHT22;4524;51.364;5.448;2024-01-30T11:55:37;12.70;99.90
8979;DHT22;4524;51.364;5.448;2024-01-30T11:58:06;12.80;99.90
8979;DHT22;4524;51.364;5.448;2024-01-30T12:00:34;12.70;99.90
8979;DHT22;4524;51.364;5.448;2024-01-30T12:03:04;12.80;99.90
8979;DHT22;4524;51.364;5.448;2024-01-30T12:05:34;12.80;99.90
8979;DHT22;4524;51.364;5.448;2024-01-30T12:08:03;12.80;99.90
8979;DHT22;4524;51.364;5.448;2024-01-30T12:10:32;12.80;99.90
8979;DHT22;4524;51.364;5.448;2024-01-30T12:13:01;12.80;99.90
8979;DHT22;4524;51.364;5.448;2024-01-30T12:15:30;12.80;99.90
8979;DHT22;4524;51.364;5.448;2024-01-30T12:18:05;12.80;99.90
8979;DHT22;4524;51.364;5.448;2024-01-30T12:20:34;12.70;99.90
8979;DHT22;4524;51.364;5.448;2024-01-30T12:23:03;12.60;99.90
8979;DHT22;4524;51.364;5.448;2024-01-30T12:25:31;12.60;99.90
8979;DHT22;4524;51.364;5.448;2024-01-30T12:27:59;12.70;99.90
8979;DHT22;4524;51.364;5.448;2024-01-30T12:30:28;12.70;99.90
8979;DHT22;4524;51.364;5.448;2024-01-30T12:32:56;12.70;99.90
8979;DHT22;4524;51.364;5.448;2024-01-30T12:35:26;12.70;99.90
8979;DHT22;4524;51.364;5.448;2024-01-30T12:37:57;12.90;99.90
8979;DHT22;4524;51.364;5.448;2024-01-30T12:40:25;12.90;99.90
8979;DHT22;4524;51.364;5.448;2024-01-30T12:42:53;13.00;99.90
8979;DHT22;4524;51.364;5.448;2024-01-30T12:45:22;12.90;99.90
8979;DHT22;4524;51.364;5.448;2024-01-30T12:47:50;12.90;99.90
8979;DHT22;4524;51.364;5.448;2024-01-30T12:50:19;12.80;97.80
8979;DHT22;4524;51.364;5.448;2024-01-30T12:52:48;12.60;96.60
8979;DHT22;4524;51.364;5.448;2024-01-30T12:55:16;12.50;94.00
8979;DHT22;4524;51.364;5.448;2024-01-30T12:57:45;12.40;95.30
8979;DHT22;4524;51.364;5.448;2024-01-30T13:00:13;12.30;92.40
8979;DHT22;4524;51.364;5.448;2024-01-30T13:02:43;12.20;92.80
8979;DHT22;4524;51.364;5.448;2024-01-30T13:05:12;12.20;92.10
8979;DHT22;4524;51.364;5.448;2024-01-30T13:07:40;12.20;92.90
8979;DHT22;4524;51.364;5.448;2024-01-30T13:10:10;12.40;91.50
8979;DHT22;4524;51.364;5.448;2024-01-30T13:12:38;12.60;90.70
8979;DHT22;4524;51.364;5.448;2024-01-30T13:15:07;12.60;90.10
8979;DHT22;4524;51.364;5.448;2024-01-30T13:17:35;12.80;88.70
8979;DHT22;4524;51.364;5.448;2024-01-30T13:20:04;12.90;86.20
8979;DHT22;4524;51.364;5.448;2024-01-30T13:22:38;13.00;85.40
8979;DHT22;4524;51.364;5.448;2024-01-30T13:25:06;13.10;85.00
8979;DHT22;4524;51.364;5.448;2024-01-30T13:27:36;13.20;83.20
8979;DHT22;4524;51.364;5.448;2024-01-30T13:30:07;13.10;82.00
8979;DHT22;4524;51.364;5.448;2024-01-30T13:32:36;13.10;85.50
8979;DHT22;4524;51.364;5.448;2024-01-30T13:35:05;12.90;85.40
8979;DHT22;4524;51.364;5.448;2024-01-30T13:37:33;12.70;84.00
8979;DHT22;4524;51.364;5.448;2024-01-30T13:40:02;12.60;82.80
8979;DHT22;4524;51.364;5.448;2024-01-30T13:42:36;12.30;80.10
8979;DHT22;4524;51.364;5.448;2024-01-30T13:45:05;12.20;82.90
8979;DHT22;4524;51.364;5.448;2024-01-30T13:47:33;12.10;81.70
8979;DHT22;4524;51.364;5.448;2024-01-30T13:50:01;12.20;82.40
8979;DHT22;4524;51.364;5.448;2024-01-30T13:52:29;12.10;83.00
8979;DHT22;4524;51.364;5.448;2024-01-30T13:55:04;12.00;82.90
8979;DHT22;4524;51.364;5.448;2024-01-30T13:57:32;12.10;82.80
8979;DHT22;4524;51.364;5.448;2024-01-30T14:00:04;12.20;83.20
8979;DHT22;4524;51.364;5.448;2024-01-30T14:02:38;12.20;83.00
8979;DHT22;4524;51.364;5.448;2024-01-30T14:05:07;12.30;82.40
8979;DHT22;4524;51.364;5.448;2024-01-30T14:07:37;12.30;82.60
8979;DHT22;4524;51.364;5.448;2024-01-30T14:10:07;12.20;81.50
8979;DHT22;4524;51.364;5.448;2024-01-30T14:12:39;12.30;80.90
8979;DHT22;4524;51.364;5.448;2024-01-30T14:15:09;12.20;80.30
8979;DHT22;4524;51.364;5.448;2024-01-30T14:17:53;12.20;81.10
8979;DHT22;4524;51.364;5.448;2024-01-30T14:20:21;12.20;80.50
8979;DHT22;4524;51.364;5.448;2024-01-30T14:22:49;12.10;81.80
8979;DHT22;4524;51.364;5.448;2024-01-30T14:25:18;12.10;82.60
8979;DHT22;4524;51.364;5.448;2024-01-30T14:27:47;12.10;83.40
8979;DHT22;4524;51.364;5.448;2024-01-30T14:30:17;12.10;83.40
8979;DHT22;4524;51.364;5.448;2024-01-30T14:32:45;12.10;83.70
8979;DHT22;4524;51.364;5.448;2024-01-30T14:35:14;12.10;82.70
8979;DHT22;4524;51.364;5.448;2024-01-30T14:37:42;12.10;84.50
8979;DHT22;4524;51.364;5.448;2024-01-30T14:40:10;12.00;84.90
8979;DHT22;4524;51.364;5.448;2024-01-30T14:42:38;12.00;85.30
8979;DHT22;4524;51.364;5.448;2024-01-30T14:45:07;12.00;86.80
8979;DHT22;4524;51.364;5.448;2024-01-30T14:47:37;11.90;86.40
8979;DHT22;4524;51.364;5.448;2024-01-30T14:50:06;11.90;88.60
8979;DHT22;4524;51.364;5.448;2024-01-30T14:52:35;11.80;90.50
8979;DHT22;4524;51.364;5.448;2024-01-30T14:55:05;11.70;92.00
8979;DHT22;4524;51.364;5.448;2024-01-30T14:57:33;11.70;93.00
8979;DHT22;4524;51.364;5.448;2024-01-30T15:00:02;11.60;94.30
8979;DHT22;4524;51.364;5.448;2024-01-30T15:02:31;11.50;98.60
8979;DHT22;4524;51.364;5.448;2024-01-30T15:05:00;11.40;99.90
8979;DHT22;4524;51.364;5.448;2024-01-30T15:07:29;11.40;99.90
8979;DHT22;4524;51.364;5.448;2024-01-30T15:10:07;11.40;99.90
8979;DHT22;4524;51.364;5.448;2024-01-30T15:12:35;11.30;99.90
8979;DHT22;4524;51.364;5.448;2024-01-30T15:15:06;11.30;99.90
8979;DHT22;4524;51.364;5.448;2024-01-30T15:17:35;11.20;99.90
8979;DHT22;4524;51.364;5.448;2024-01-30T15:20:05;11.20;99.90
8979;DHT22;4524;51.364;5.448;2024-01-30T15:22:34;11.20;99.90
8979;DHT22;4524;51.364;5.448;2024-01-30T15:25:02;11.20;99.90
8979;DHT22;4524;51.364;5.448;2024-01-30T15:27:31;11.20;99.90
8979;DHT22;4524;51.364;5.448;2024-01-30T15:29:59;11.00;99.90
8979;DHT22;4524;51.364;5.448;2024-01-30T15:32:27;11.00;99.90
8979;DHT22;4524;51.364;5.448;2024-01-30T15:34:55;10.90;99.90
8979;DHT22;4524;51.364;5.448;2024-01-30T15:37:25;10.90;99.90
8979;DHT22;4524;51.364;5.448;2024-01-30T15:39:53;10.90;99.90
8979;DHT22;4524;51.364;5.448;2024-01-30T15:42:21;10.80;99.90
8979;DHT22;4524;51.364;5.448;2024-01-30T15:44:49;10.70;99.90
8979;DHT22;4524;51.364;5.448;2024-01-30T15:47:17;10.70;99.90
8979;DHT22;4524;51.364;5.448;2024-01-30T15:49:45;10.70;99.90
8979;DHT22;4524;51.364;5.448;2024-01-30T15:52:13;10.70;99.90
8979;DHT22;4524;51.364;5.448;2024-01-30T15:54:46;10.60;99.90
8979;DHT22;4524;51.364;5.448;2024-01-30T15:57:14;10.60;99.90
8979;DHT22;4524;51.364;5.448;2024-01-30T15:59:42;10.60;99.90
8979;DHT22;4524;51.364;5.448;2024-01-30T16:02:10;10.50;99.90
8979;DHT22;4524;51.364;5.448;2024-01-30T16:04:38;10.50;99.90
8979;DHT22;4524;51.364;5.448;2024-01-30T16:07:06;10.50;99.90
8979;DHT22;4524;51.364;5.448;2024-01-30T16:09:34;10.50;99.90
8979;DHT22;4524;51.364;5.448;2024-01-30T16:12:05;10.40;99.90
8979;DHT22;4524;51.364;5.448;2024-01-30T16:14:33;10.40;99.90
8979;DHT22;4524;51.364;5.448;2024-01-30T16:17:03;10.30;99.90